Time;durP1;ratioP1;P1;durP2;ratioP2;P2;SDS_P1;SDS_P2;PMS_P1;PMS_P2;Temp;Humidity;BMP_temperature;BMP_pressure;BME280_temperature;BME280_humidity;BME280_pressure;Samples;Min_cycle;Max_cycle;Signal;HPM_P1;HPM_P2
2022/11/13 00:00:33;;;;;;;20.73;13.20;;;5.50;99.90;;;;;;5114049;28;20130;-78
2022/11/13 00:02:59;;;;;;;18.67;12.77;;;5.70;99.90;;;;;;5113992;28;20069;-78
2022/11/13 00:05:24;;;;;;;17.10;12.27;;;5.60;99.90;;;;;;5113952;28;20043;-79
2022/11/13 00:07:50;;;;;;;24.35;14.13;;;5.70;99.90;;;;;;5112763;28;20035;-79
2022/11/13 00:10:16;;;;;;;17.92;12.13;;;5.70;99.90;;;;;;5114016;28;20047;-78
2022/11/13 00:12:41;;;;;;;20.33;13.25;;;5.80;99.90;;;;;;5113866;28;20104;-78
2022/11/13 00:15:07;;;;;;;18.35;12.57;;;5.80;99.90;;;;;;5113871;28;20036;-79
2022/11/13 00:17:33;;;;;;;19.90;13.18;;;5.80;99.90;;;;;;5113732;28;20180;-78
2022/11/13 00:19:58;;;;;;;18.08;12.60;;;5.80;99.90;;;;;;5112800;28;20054;-79
2022/11/13 00:22:24;;;;;;;24.27;13.95;;;5.80;99.90;;;;;;5113793;28;20050;-79
2022/11/13 00:24:49;;;;;;;21.90;13.68;;;5.80;99.90;;;;;;5113872;28;20474;-79
2022/11/13 00:27:15;;;;;;;20.42;13.98;;;5.90;99.90;;;;;;5114697;28;20097;-78
2022/11/13 00:29:41;;;;;;;20.50;14.23;;;5.90;99.90;;;;;;5117690;28;20136;-78
2022/11/13 00:32:06;;;;;;;22.05;14.52;;;5.90;99.90;;;;;;5117517;28;20495;-79
2022/11/13 00:34:32;;;;;;;20.80;13.75;;;4.90;99.90;;;;;;5117522;28;20040;-79
2022/11/13 00:36:57;;;;;;;24.02;14.05;;;5.90;99.90;;;;;;5117583;27;20039;-79
2022/11/13 00:39:23;;;;;;;23.35;14.70;;;5.50;99.90;;;;;;5117185;28;20516;-79
2022/11/13 00:41:48;;;;;;;21.73;13.02;;;7.10;99.90;;;;;;5117861;28;20082;-79
2022/11/13 00:44:14;;;;;;;19.13;13.65;;;5.90;99.90;;;;;;5117412;28;20036;-79
2022/11/13 00:46:40;;;;;;;20.45;12.77;;;5.60;99.90;;;;;;5117645;28;20061;-79
2022/11/13 00:49:05;;;;;;;19.08;13.05;;;5.90;99.90;;;;;;5117412;28;20048;-79
2022/11/13 00:51:31;;;;;;;19.40;13.50;;;6.60;99.90;;;;;;5117111;28;20127;-79
2022/11/13 00:53:57;;;;;;;21.42;13.00;;;5.80;99.90;;;;;;5117069;28;20047;-79
2022/11/13 00:56:22;;;;;;;19.33;12.80;;;5.60;99.90;;;;;;5117597;28;20054;-78
2022/11/13 00:58:48;;;;;;;20.27;14.25;;;5.90;99.90;;;;;;5117223;28;20039;-78
2022/11/13 01:01:17;;;;;;;20.98;13.75;;;5.90;99.90;;;;;;5117379;28;20498;-79
2022/11/13 01:03:43;;;;;;;22.40;14.23;;;5.90;99.90;;;;;;5117215;28;20043;-79
2022/11/13 01:06:20;;;;;;;23.30;13.60;;;5.90;99.90;;;;;;5117079;28;20043;-78
2022/11/13 01:08:46;;;;;;;22.13;14.02;;;5.80;99.90;;;;;;5116890;28;20040;-78
2022/11/13 01:11:15;;;;;;;23.52;15.50;;;6.60;99.90;;;;;;5116933;28;20118;-79
2022/11/13 01:13:42;;;;;;;20.95;14.75;;;6.00;99.90;;;;;;5116777;28;20046;-79
2022/11/13 01:16:09;;;;;;;25.05;14.68;;;6.00;99.90;;;;;;5116749;28;20399;-79
2022/11/13 01:18:35;;;;;;;22.98;14.52;;;5.80;99.90;;;;;;5116831;28;20040;-79
2022/11/13 01:21:03;;;;;;;20.27;14.18;;;5.80;99.90;;;;;;5116566;28;20051;-79
2022/11/13 01:23:29;;;;;;;21.70;14.90;;;6.10;99.90;;;;;;5116633;28;20585;-78
2022/11/13 01:25:54;;;;;;;22.25;14.50;;;6.50;99.90;;;;;;5116479;28;20134;-79
2022/11/13 01:28:20;;;;;;;18.73;14.15;;;6.10;99.90;;;;;;5116626;28;20437;-79
2022/11/13 01:30:45;;;;;;;24.00;14.75;;;6.30;99.90;;;;;;5116715;28;20083;-79
2022/11/13 01:33:11;;;;;;;23.00;14.93;;;6.10;99.90;;;;;;5116633;28;20044;-79
2022/11/13 01:35:36;;;;;;;25.20;14.80;;;6.10;99.90;;;;;;5116486;28;20472;-79
2022/11/13 01:38:02;;;;;;;21.10;14.82;;;6.10;99.90;;;;;;5116504;28;20043;-78
2022/11/13 01:40:28;;;;;;;22.67;14.00;;;6.10;99.90;;;;;;5116126;28;20043;-79
2022/11/13 01:42:53;;;;;;;22.50;15.05;;;5.80;99.90;;;;;;5116378;28;20050;-79
2022/11/13 01:45:59;;;;;;;26.20;15.93;;;6.90;99.90;;;;;;5115252;28;20043;-79
2022/11/13 01:48:32;;;;;;;25.90;15.85;;;6.10;99.90;;;;;;5116238;28;20079;-79
2022/11/13 01:50:58;;;;;;;24.55;15.65;;;6.00;99.90;;;;;;5116563;28;20048;-78
2022/11/13 01:53:25;;;;;;;24.15;15.60;;;6.00;99.90;;;;;;5116026;28;20533;-79
2022/11/13 01:55:51;;;;;;;23.45;14.85;;;6.00;99.90;;;;;;5116103;28;20062;-79
2022/11/13 01:58:17;;;;;;;22.15;14.93;;;6.10;99.90;;;;;;5115207;28;20047;-78
2022/11/13 02:00:42;;;;;;;24.10;15.35;;;6.00;99.90;;;;;;5115947;28;20047;-78
2022/11/13 02:03:08;;;;;;;22.80;15.70;;;5.90;99.90;;;;;;5116402;28;20043;-79
2022/11/13 02:05:34;;;;;;;22.40;14.40;;;6.00;99.90;;;;;;5116179;28;20039;-79
2022/11/13 02:08:00;;;;;;;24.52;14.65;;;6.00;99.90;;;;;;5115688;28;20054;-79
2022/11/13 02:10:26;;;;;;;24.40;14.93;;;6.10;99.90;;;;;;5115789;28;20040;-79
2022/11/13 02:12:51;;;;;;;23.52;14.13;;;6.00;99.90;;;;;;5115619;28;20093;-79
2022/11/13 02:15:22;;;;;;;22.05;14.73;;;5.90;99.90;;;;;;5115667;28;20051;-80
2022/11/13 02:17:52;;;;;;;22.15;14.65;;;5.60;99.90;;;;;;5116165;28;20047;-80
2022/11/13 02:20:28;;;;;;;23.75;14.35;;;5.90;99.90;;;;;;5115664;28;20086;-79
2022/11/13 02:23:07;;;;;;;22.63;14.63;;;5.90;99.90;;;;;;5115793;28;20044;-79
2022/11/13 02:25:34;;;;;;;22.30;14.75;;;5.90;99.90;;;;;;5115504;28;20040;-79
2022/11/13 02:28:00;;;;;;;20.75;14.73;;;5.80;99.90;;;;;;5115498;28;20055;-78
2022/11/13 02:30:28;;;;;;;22.00;15.10;;;6.00;99.90;;;;;;5115226;28;20085;-79
2022/11/13 02:32:56;;;;;;;22.25;14.95;;;5.50;99.90;;;;;;5115374;28;20049;-79
2022/11/13 02:35:31;;;;;;;20.60;14.55;;;5.80;99.90;;;;;;5115679;28;20044;-78
2022/11/13 02:37:59;;;;;;;22.77;14.82;;;5.80;99.90;;;;;;5115437;28;20376;-79
2022/11/13 02:40:25;;;;;;;20.85;13.52;;;5.80;99.90;;;;;;5115218;28;20391;-79
2022/11/13 02:42:51;;;;;;;19.70;13.97;;;5.70;99.90;;;;;;5115571;28;20425;-79
2022/11/13 02:45:16;;;;;;;22.08;12.27;;;5.70;99.90;;;;;;5115387;28;20092;-79
2022/11/13 02:47:42;;;;;;;22.27;13.90;;;5.70;99.90;;;;;;5114989;28;20436;-78
2022/11/13 02:50:09;;;;;;;19.15;13.35;;;5.70;99.90;;;;;;5114752;28;20043;-79
2022/11/13 02:52:35;;;;;;;20.73;14.35;;;5.60;99.90;;;;;;5114535;28;20068;-79
2022/11/13 02:55:01;;;;;;;24.75;15.13;;;5.70;99.90;;;;;;5114830;28;20040;-79
2022/11/13 02:57:26;;;;;;;18.77;13.77;;;5.60;99.90;;;;;;5114872;28;20387;-79
2022/11/13 02:59:52;;;;;;;20.50;15.13;;;5.60;99.90;;;;;;5114585;28;20406;-79
2022/11/13 03:02:18;;;;;;;22.20;14.23;;;5.60;99.90;;;;;;5115295;28;20039;-79
2022/11/13 03:04:45;;;;;;;22.38;14.13;;;5.30;99.90;;;;;;5114710;28;20122;-79
2022/11/13 03:07:11;;;;;;;;;;;5.30;99.90;;;;;;5115032;28;20483;-79
2022/11/13 03:09:36;;;;;;;21.98;14.10;;;5.50;99.90;;;;;;5114676;28;19919;-79
2022/11/13 03:12:02;;;;;;;24.60;14.38;;;5.50;99.90;;;;;;5114542;28;20130;-79
2022/11/13 03:14:28;;;;;;;24.10;14.48;;;5.50;99.90;;;;;;5114727;28;20039;-79
2022/11/13 03:16:53;;;;;;;20.88;13.93;;;5.50;99.90;;;;;;5113364;28;20040;-79
2022/11/13 03:19:19;;;;;;;21.48;13.43;;;5.40;99.90;;;;;;5114501;28;20044;-79
2022/11/13 03:21:44;;;;;;;21.10;14.85;;;5.50;99.90;;;;;;5114081;28;20131;-79
2022/11/13 03:24:10;;;;;;;20.88;14.07;;;5.50;99.90;;;;;;5114384;28;20043;-79
2022/11/13 03:26:35;;;;;;;21.73;14.88;;;5.50;99.90;;;;;;5113386;28;20467;-78
2022/11/13 03:29:01;;;;;;;22.17;14.25;;;6.20;99.90;;;;;;5114659;28;20047;-78
2022/11/13 03:31:27;;;;;;;27.17;14.93;;;5.50;99.90;;;;;;5114759;28;20150;-78
2022/11/13 03:33:53;;;;;;;19.98;14.00;;;5.50;99.90;;;;;;5114412;28;20040;-79
2022/11/13 03:36:19;;;;;;;20.63;14.15;;;5.50;99.90;;;;;;5114406;28;20126;-78
2022/11/13 03:38:44;;;;;;;20.50;14.02;;;5.10;99.90;;;;;;5114395;28;20040;-79
2022/11/13 03:41:10;;;;;;;22.33;14.50;;;5.40;99.90;;;;;;5113905;28;20045;-78
2022/11/13 03:43:36;;;;;;;19.95;13.55;;;5.40;99.90;;;;;;5114466;28;20048;-79
2022/11/13 03:46:01;;;;;;;22.42;14.63;;;5.40;99.90;;;;;;5114105;28;20490;-78
2022/11/13 03:48:27;;;;;;;21.05;14.20;;;5.40;99.90;;;;;;5114137;28;20122;-79
2022/11/13 03:50:54;;;;;;;21.08;14.07;;;5.40;99.90;;;;;;5114592;28;20124;-79
2022/11/13 03:53:21;;;;;;;22.80;13.95;;;5.30;99.90;;;;;;5114355;28;20048;-79
2022/11/13 03:55:46;;;;;;;19.50;12.53;;;5.30;99.90;;;;;;5114032;28;20039;-79
2022/11/13 03:58:12;;;;;;;21.75;13.73;;;5.30;99.90;;;;;;5114186;28;20122;-79
2022/11/13 04:00:40;;;;;;;18.17;12.80;;;6.00;99.90;;;;;;5114174;28;20394;-79
2022/11/13 04:03:06;;;;;;;23.02;13.88;;;5.30;99.90;;;;;;5115300;28;20042;-78
2022/11/13 04:05:31;;;;;;;22.48;13.95;;;5.30;99.90;;;;;;5118103;28;20126;-79
2022/11/13 04:07:57;;;;;;;21.77;14.13;;;5.20;99.90;;;;;;5118186;28;20062;-79
2022/11/13 04:10:23;;;;;;;20.05;12.98;;;4.90;99.90;;;;;;5117858;28;20051;-79
2022/11/13 04:12:49;;;;;;;19.08;13.02;;;5.20;99.90;;;;;;5118149;27;20040;-78
2022/11/13 04:15:17;;;;;;;17.77;12.45;;;5.20;99.90;;;;;;5117870;28;20063;-79
2022/11/13 04:17:43;;;;;;;25.13;13.93;;;4.80;99.90;;;;;;5118201;28;20475;-79
2022/11/13 04:20:09;;;;;;;20.83;13.85;;;5.10;99.90;;;;;;5117594;28;20035;-79
2022/11/13 04:22:34;;;;;;;21.73;13.85;;;5.10;99.90;;;;;;5117796;28;20150;-79
2022/11/13 04:25:00;;;;;;;18.98;13.43;;;5.00;99.90;;;;;;5117621;28;20487;-78
2022/11/13 04:27:26;;;;;;;19.15;13.32;;;5.00;99.90;;;;;;5117799;28;20050;-79
2022/11/13 04:29:51;;;;;;;18.88;13.07;;;6.50;99.90;;;;;;5117378;28;20108;-79
2022/11/13 04:32:18;;;;;;;20.58;13.00;;;5.20;99.90;;;;;;5118212;28;20132;-79
2022/11/13 04:34:43;;;;;;;19.92;13.07;;;5.30;99.90;;;;;;5117618;28;20114;-78
2022/11/13 04:37:09;;;;;;;22.30;13.90;;;6.50;99.90;;;;;;5117651;28;20051;-79
2022/11/13 04:39:35;;;;;;;17.27;13.07;;;5.40;99.90;;;;;;5117561;28;20055;-79
2022/11/13 04:44:44;;;;;;;19.10;13.27;;;5.10;99.90;;;;;;5117755;28;20048;-79
2022/11/13 04:47:10;;;;;;;21.10;12.93;;;5.10;99.90;;;;;;5117457;28;20456;-79
2022/11/13 04:49:36;;;;;;;20.33;13.38;;;5.10;99.90;;;;;;5116401;28;20047;-79
2022/11/13 04:52:01;;;;;;;20.88;13.43;;;5.10;99.90;;;;;;5117341;28;20039;-79
2022/11/13 04:54:27;;;;;;;19.63;12.93;;;5.00;99.90;;;;;;5116617;28;20040;-79
2022/11/13 04:56:52;;;;;;;20.00;13.05;;;5.00;99.90;;;;;;5117280;28;20047;-79
2022/11/13 04:59:18;;;;;;;18.20;12.77;;;4.70;99.90;;;;;;5117244;28;20048;-79
2022/11/13 05:01:43;;;;;;;23.38;13.90;;;4.90;99.90;;;;;;5117194;28;20488;-79
2022/11/13 05:04:13;;;;;;;21.75;13.70;;;5.00;99.90;;;;;;5117079;28;20135;-78
2022/11/13 05:06:40;;;;;;;21.67;13.93;;;4.70;99.90;;;;;;5117034;28;20047;-79
2022/11/13 05:09:05;;;;;;;19.83;13.50;;;4.70;99.90;;;;;;5117955;28;20051;-79
2022/11/13 05:11:31;;;;;;;21.75;13.40;;;4.70;99.90;;;;;;5116997;28;20039;-79
2022/11/13 05:13:56;;;;;;;19.77;14.38;;;5.30;99.90;;;;;;5114842;28;20047;-79
2022/11/13 05:16:22;;;;;;;23.58;13.30;;;4.60;99.90;;;;;;5117024;28;20036;-79
2022/11/13 05:18:48;;;;;;;20.42;13.80;;;4.90;99.90;;;;;;5115661;28;20540;-79
2022/11/13 05:21:13;;;;;;;17.80;13.15;;;4.80;99.90;;;;;;5116832;28;20050;-78
2022/11/13 05:23:39;;;;;;;20.80;13.35;;;4.70;99.90;;;;;;5116416;28;20134;-79
2022/11/13 05:26:07;;;;;;;21.08;13.73;;;4.60;99.90;;;;;;5116628;28;20173;-79
2022/11/13 05:28:33;;;;;;;19.42;13.18;;;4.70;99.90;;;;;;5116361;28;20054;-78
2022/11/13 05:31:02;;;;;;;18.30;12.35;;;4.60;99.90;;;;;;5116749;28;20118;-79
2022/11/13 05:33:28;;;;;;;22.00;13.45;;;4.50;99.90;;;;;;5116587;28;20051;-79
2022/11/13 05:35:54;;;;;;;21.73;12.88;;;4.50;99.90;;;;;;5116577;28;20047;-79
2022/11/13 05:38:19;;;;;;;20.67;13.73;;;4.60;99.90;;;;;;5116373;28;20050;-79
2022/11/13 05:40:45;;;;;;;20.88;13.70;;;4.60;99.90;;;;;;5116368;28;20138;-79
2022/11/13 05:43:10;;;;;;;24.20;13.15;;;4.50;99.90;;;;;;5116486;28;20368;-78
2022/11/13 05:45:36;;;;;;;19.58;13.30;;;4.60;99.90;;;;;;5115812;28;20078;-79
2022/11/13 05:48:01;;;;;;;21.58;13.63;;;4.40;99.90;;;;;;5116046;28;20485;-80
2022/11/13 05:50:27;;;;;;;23.15;14.20;;;4.30;99.90;;;;;;5116229;28;20071;-78
2022/11/13 05:52:53;;;;;;;21.63;14.07;;;5.40;99.90;;;;;;5116061;28;20079;-79
2022/11/13 05:55:18;;;;;;;20.80;12.95;;;4.50;99.90;;;;;;5116100;28;20463;-79
2022/11/13 05:57:44;;;;;;;18.92;12.95;;;4.50;99.90;;;;;;5116034;28;20043;-79
2022/11/13 06:00:10;;;;;;;25.98;13.35;;;4.40;99.90;;;;;;5116257;28;20100;-79
2022/11/13 06:02:35;;;;;;;21.50;13.40;;;4.60;99.90;;;;;;5114367;28;20079;-79
2022/11/13 06:05:01;;;;;;;20.15;11.95;;;4.50;99.90;;;;;;5114842;28;20332;-79
2022/11/13 06:07:27;;;;;;;20.88;12.75;;;4.50;99.90;;;;;;5115926;28;20429;-79
2022/11/13 06:09:52;;;;;;;22.20;12.75;;;4.50;99.90;;;;;;5116381;28;20044;-79
2022/11/13 06:12:18;;;;;;;20.58;13.00;;;4.50;99.90;;;;;;5115626;28;20044;-78
2022/11/13 06:14:43;;;;;;;16.55;12.15;;;4.40;99.90;;;;;;5115683;28;20036;-79
2022/11/13 06:17:09;;;;;;;17.80;12.60;;;4.40;99.90;;;;;;5115774;28;20126;-79
2022/11/13 06:19:34;;;;;;;16.90;11.80;;;4.50;99.90;;;;;;5115520;28;20079;-79
2022/11/13 06:22:00;;;;;;;18.50;12.48;;;4.60;99.90;;;;;;5115583;28;20058;-79
2022/11/13 06:24:25;;;;;;;21.38;12.90;;;4.40;99.90;;;;;;5115460;28;20122;-79
2022/11/13 06:26:52;;;;;;;17.90;12.13;;;4.40;99.90;;;;;;5115394;28;20475;-79
2022/11/13 06:29:18;;;;;;;16.98;12.15;;;3.60;99.90;;;;;;5115300;28;20098;-80
2022/11/13 06:31:43;;;;;;;19.00;12.35;;;4.40;99.90;;;;;;5115319;28;20399;-79
2022/11/13 06:34:09;;;;;;;19.58;12.80;;;5.20;99.90;;;;;;5115445;28;20047;-79
2022/11/13 06:36:36;;;;;;;17.20;12.07;;;4.30;99.90;;;;;;5115157;28;20067;-79
2022/11/13 06:39:05;;;;;;;20.10;12.52;;;4.40;99.90;;;;;;5115714;28;20054;-79
2022/11/13 06:41:31;;;;;;;16.95;12.40;;;4.60;99.90;;;;;;5115398;28;20043;-79
2022/11/13 06:43:58;;;;;;;19.13;12.70;;;4.50;99.90;;;;;;5115660;28;20043;-79
2022/11/13 06:46:25;;;;;;;19.55;12.35;;;4.80;99.90;;;;;;5115271;28;20058;-79
2022/11/13 06:48:51;;;;;;;23.65;13.13;;;4.60;99.90;;;;;;5113887;28;20051;-79
2022/11/13 06:51:20;;;;;;;16.95;11.77;;;4.50;99.90;;;;;;5115001;28;20425;-79
2022/11/13 06:53:46;;;;;;;18.48;12.90;;;4.50;99.90;;;;;;5114956;28;20051;-79
2022/11/13 06:56:12;;;;;;;19.63;12.50;;;4.50;99.90;;;;;;5114893;28;20043;-79
2022/11/13 06:58:38;;;;;;;20.58;12.02;;;5.10;99.90;;;;;;5114173;28;20100;-79
2022/11/13 07:01:10;;;;;;;18.10;11.80;;;4.50;99.90;;;;;;5114894;28;20087;-79
2022/11/13 07:03:36;;;;;;;18.75;12.25;;;4.50;99.90;;;;;;5114852;28;20051;-79
2022/11/13 07:06:03;;;;;;;18.40;11.70;;;4.30;99.90;;;;;;5114776;28;20394;-79
2022/11/13 07:08:29;;;;;;;20.33;13.48;;;4.60;99.90;;;;;;5114653;28;20048;-79
2022/11/13 07:10:56;;;;;;;17.27;12.45;;;4.50;99.90;;;;;;5114663;28;20040;-79
2022/11/13 07:13:23;;;;;;;18.98;12.30;;;4.40;99.90;;;;;;5114683;28;20084;-79
2022/11/13 07:15:48;;;;;;;16.33;12.32;;;4.50;99.90;;;;;;5096331;28;20507;-79
2022/11/13 07:18:14;;;;;;;21.67;13.00;;;4.50;99.90;;;;;;5114874;28;20048;-79
2022/11/13 07:20:40;;;;;;;18.35;11.85;;;4.50;99.90;;;;;;5114505;28;20387;-79
2022/11/13 07:23:06;;;;;;;22.83;13.20;;;4.60;99.90;;;;;;5113616;28;20047;-79
2022/11/13 07:25:31;;;;;;;20.60;12.82;;;4.60;99.90;;;;;;5114387;28;20039;-79
2022/11/13 07:27:57;;;;;;;16.88;11.85;;;4.60;99.90;;;;;;5114509;28;20138;-79
2022/11/13 07:30:23;;;;;;;19.67;11.80;;;4.70;99.90;;;;;;5114090;28;20059;-79
2022/11/13 07:32:48;;;;;;;20.80;12.93;;;4.70;99.90;;;;;;5114218;28;20046;-79
2022/11/13 07:35:15;;;;;;;19.05;12.05;;;4.70;99.90;;;;;;5114341;28;20435;-79
2022/11/13 07:37:42;;;;;;;19.20;11.73;;;4.90;99.90;;;;;;5113834;28;20127;-79
2022/11/13 07:40:08;;;;;;;21.92;12.57;;;4.60;99.90;;;;;;5114248;28;20051;-79
2022/11/13 07:42:34;;;;;;;16.90;11.37;;;4.80;99.90;;;;;;5112977;28;20048;-79
2022/11/13 07:44:59;;;;;;;19.33;12.05;;;4.60;99.90;;;;;;5114501;28;20541;-79
2022/11/13 07:47:25;;;;;;;17.52;11.48;;;4.70;99.90;;;;;;5114290;28;20126;-79
2022/11/13 07:49:51;;;;;;;17.20;10.90;;;5.20;99.90;;;;;;5114148;28;20055;-79
2022/11/13 07:52:16;;;;;;;17.83;11.05;;;4.70;99.90;;;;;;5114257;28;20495;-79
2022/11/13 07:54:42;;;;;;;22.02;11.98;;;4.70;99.90;;;;;;5114180;28;20134;-79
2022/11/13 07:57:08;;;;;;;15.57;11.50;;;4.70;99.90;;;;;;5114194;28;20069;-79
2022/11/13 07:59:34;;;;;;;17.23;11.55;;;4.80;99.90;;;;;;5114103;28;20050;-79
2022/11/13 08:02:00;;;;;;;16.35;11.90;;;4.80;99.90;;;;;;5114000;28;20048;-79
2022/11/13 08:04:25;;;;;;;16.65;11.55;;;4.90;99.90;;;;;;5113892;28;20043;-79
2022/11/13 08:06:51;;;;;;;18.90;11.45;;;5.10;99.90;;;;;;5114602;28;20122;-79
2022/11/13 08:09:16;;;;;;;22.58;12.32;;;5.00;99.90;;;;;;5114205;28;20399;-79
2022/11/13 08:11:42;;;;;;;19.13;12.70;;;5.20;99.90;;;;;;5114183;28;20035;-79
2022/11/13 08:14:09;;;;;;;20.52;11.80;;;5.00;99.90;;;;;;5113281;28;20040;-79
2022/11/13 08:16:35;;;;;;;20.90;11.93;;;5.10;99.90;;;;;;5114130;28;20425;-79
2022/11/13 08:19:01;;;;;;;18.77;11.35;;;5.30;99.90;;;;;;5113759;28;20127;-79
2022/11/13 08:21:26;;;;;;;17.13;10.97;;;5.30;99.90;;;;;;5113969;28;20101;-79
2022/11/13 08:23:52;;;;;;;22.75;12.10;;;5.40;99.90;;;;;;5113819;28;20217;-79
2022/11/13 08:26:18;;;;;;;18.40;10.52;;;5.50;99.90;;;;;;5113828;28;20089;-79
2022/11/13 08:28:44;;;;;;;14.52;10.75;;;5.70;99.90;;;;;;5112464;28;20126;-79
2022/11/13 08:31:11;;;;;;;15.85;10.90;;;5.80;99.90;;;;;;5114068;28;20043;-80
2022/11/13 08:33:37;;;;;;;;;;;5.70;99.90;;;;;;5114205;28;20130;-79
2022/11/13 08:36:03;;;;;;;14.07;10.65;;;6.00;99.90;;;;;;5113856;28;19970;-79
2022/11/13 08:38:28;;;;;;;15.00;10.15;;;6.10;99.90;;;;;;5114146;28;20126;-79
2022/11/13 08:40:59;;;;;;;14.77;10.77;;;6.20;99.90;;;;;;5114014;28;20047;-79
2022/11/13 08:43:25;;;;;;;14.93;10.68;;;6.20;99.90;;;;;;5113660;28;20048;-80
2022/11/13 08:45:50;;;;;;;12.23;9.80;;;6.30;99.90;;;;;;5113548;28;20122;-80
2022/11/13 08:48:16;;;;;;;14.77;10.52;;;6.40;99.90;;;;;;5113588;28;20135;-79
2022/11/13 08:50:42;;;;;;;14.65;10.00;;;6.30;99.90;;;;;;5117025;28;20044;-80
2022/11/13 08:53:08;;;;;;;15.00;10.50;;;6.50;99.90;;;;;;5117332;28;20070;-79
2022/11/13 08:55:34;;;;;;;14.98;10.55;;;6.50;99.90;;;;;;5117517;28;20035;-80
2022/11/13 08:58:00;;;;;;;16.52;10.90;;;6.70;99.90;;;;;;5117250;28;20192;-79
2022/11/13 09:00:28;;;;;;;12.70;9.73;;;6.80;99.90;;;;;;5116203;28;20052;-80
2022/11/13 09:02:55;;;;;;;13.90;10.13;;;6.80;99.90;;;;;;5116981;28;20047;-80
2022/11/13 09:05:21;;;;;;;14.02;10.07;;;7.10;99.90;;;;;;5117540;28;20039;-80
2022/11/13 09:07:47;;;;;;;16.58;10.63;;;6.90;99.90;;;;;;5116682;28;20479;-79
2022/11/13 09:10:13;;;;;;;13.20;9.70;;;7.20;99.90;;;;;;5116931;28;20130;-79
2022/11/13 09:12:39;;;;;;;14.52;9.68;;;7.20;99.90;;;;;;5116631;28;20047;-79
2022/11/13 09:15:05;;;;;;;13.10;9.73;;;7.20;99.90;;;;;;5117082;28;20044;-79
2022/11/13 09:17:31;;;;;;;13.80;9.98;;;7.40;99.90;;;;;;5116796;28;20492;-79
2022/11/13 09:19:56;;;;;;;15.07;9.30;;;7.30;99.90;;;;;;5116606;28;20040;-79
2022/11/13 09:22:22;;;;;;;12.68;9.85;;;7.80;99.90;;;;;;5116645;28;20062;-79
2022/11/13 09:24:48;;;;;;;14.32;9.13;;;7.40;99.90;;;;;;5115622;28;20054;-79
2022/11/13 09:27:13;;;;;;;10.85;8.45;;;7.70;99.90;;;;;;5116492;28;20051;-80
2022/11/13 09:29:39;;;;;;;12.60;9.27;;;7.50;99.90;;;;;;5115312;28;20059;-79
2022/11/13 09:32:05;;;;;;;13.30;8.70;;;7.60;99.90;;;;;;5116644;28;20129;-79
2022/11/13 09:34:32;;;;;;;13.40;9.75;;;7.60;99.90;;;;;;5116477;28;20048;-79
2022/11/13 09:36:58;;;;;;;13.40;9.20;;;7.60;99.90;;;;;;5116473;28;20123;-80
2022/11/13 09:39:24;;;;;;;14.70;8.85;;;7.70;99.90;;;;;;5116257;28;20058;-79
2022/11/13 09:42:08;;;;;;;14.75;9.68;;;8.20;99.90;;;;;;5116400;28;20043;-79
2022/11/13 09:44:45;;;;;;;12.77;8.98;;;7.90;99.90;;;;;;5116623;28;20043;-79
2022/11/13 09:47:28;;;;;;;12.57;9.27;;;8.20;99.90;;;;;;5116480;28;20502;-79
2022/11/13 09:50:03;;;;;;;12.00;8.85;;;7.90;99.90;;;;;;5116625;27;20063;-79
2022/11/13 09:52:34;;;;;;;13.68;9.05;;;8.90;99.90;;;;;;5116239;28;20040;-79
2022/11/13 09:55:03;;;;;;;14.38;8.95;;;7.80;99.90;;;;;;5116386;28;20043;-79
2022/11/13 09:58:10;;;;;;;14.20;8.82;;;7.90;99.90;;;;;;5114935;28;20051;-79
2022/11/13 10:00:35;;;;;;;12.10;8.90;;;8.00;99.90;;;;;;5115682;28;20051;-79
2022/11/13 10:03:29;;;;;;;12.35;8.77;;;8.00;99.90;;;;;;5115909;27;20062;-79
2022/11/13 10:06:21;;;;;;;11.32;9.15;;;8.20;99.90;;;;;;5116095;28;20036;-79
2022/11/13 10:08:59;;;;;;;12.73;9.15;;;8.40;99.90;;;;;;5114631;28;20044;-79
2022/11/13 10:11:55;;;;;;;11.07;8.38;;;8.50;99.90;;;;;;5115838;27;20484;-78
2022/11/13 10:14:28;;;;;;;11.75;8.80;;;9.60;99.90;;;;;;5115683;27;20047;-79
2022/11/13 10:17:02;;;;;;;12.52;8.05;;;8.30;99.90;;;;;;5115774;28;20403;-79
2022/11/13 10:19:53;;;;;;;11.77;7.70;;;9.00;99.90;;;;;;5115554;27;20495;-79
2022/11/13 10:22:50;;;;;;;14.13;7.85;;;8.90;99.90;;;;;;5115532;28;20051;-80
2022/11/13 10:25:19;;;;;;;9.68;7.55;;;9.20;99.90;;;;;;5115488;28;20476;-79
2022/11/13 10:27:53;;;;;;;10.18;7.90;;;9.20;99.90;;;;;;5115378;28;20040;-79
2022/11/13 10:30:18;;;;;;;9.45;7.25;;;9.40;99.90;;;;;;5115336;28;20062;-79
2022/11/13 10:32:46;;;;;;;11.40;7.38;;;9.60;99.90;;;;;;5115255;28;20122;-79
2022/11/13 10:35:18;;;;;;;10.45;7.75;;;9.50;99.90;;;;;;5115170;28;20143;-79
2022/11/13 10:37:55;;;;;;;10.40;7.47;;;9.80;99.90;;;;;;5115550;28;20392;-79
2022/11/13 10:40:33;;;;;;;11.45;7.88;;;10.50;99.90;;;;;;5115153;28;20118;-79
2022/11/13 10:43:19;;;;;;;9.80;7.60;;;9.90;99.90;;;;;;5115137;28;20051;-79
2022/11/13 10:46:00;;;;;;;9.40;7.38;;;10.00;99.90;;;;;;5115770;28;20039;-79
2022/11/13 10:48:32;;;;;;;10.30;7.05;;;10.20;99.90;;;;;;5115338;28;20093;-79
2022/11/13 10:51:01;;;;;;;10.13;6.93;;;10.10;99.90;;;;;;5114938;28;20035;-79
2022/11/13 10:53:40;;;;;;;9.15;6.63;;;11.30;99.90;;;;;;5114951;28;20061;-79
2022/11/13 10:56:28;;;;;;;7.28;6.30;;;10.40;99.90;;;;;;5115043;28;20085;-79
2022/11/13 10:59:12;;;;;;;7.75;6.18;;;10.60;99.90;;;;;;5114853;27;20441;-79
2022/11/13 11:01:38;;;;;;;7.38;5.85;;;10.70;99.90;;;;;;5113953;28;20055;-79
2022/11/13 11:04:22;;;;;;;9.90;6.57;;;10.70;99.90;;;;;;5114716;28;20040;-79
2022/11/13 11:06:49;;;;;;;8.45;5.72;;;10.90;99.90;;;;;;5114752;28;20035;-79
2022/11/13 11:09:36;;;;;;;8.85;5.70;;;11.00;99.90;;;;;;5115101;28;20047;-79
2022/11/13 11:12:22;;;;;;;7.47;5.63;;;11.10;99.90;;;;;;5114195;27;20050;-79
2022/11/13 11:14:57;;;;;;;7.43;5.35;;;11.20;99.90;;;;;;5114512;28;20042;-79
2022/11/13 11:17:33;;;;;;;8.05;5.40;;;11.50;99.90;;;;;;5114502;28;20096;-79
2022/11/13 11:20:09;;;;;;;9.20;6.25;;;11.50;99.90;;;;;;5114797;28;20043;-78
2022/11/13 11:22:37;;;;;;;8.35;6.07;;;11.70;99.90;;;;;;5114670;28;20051;-80
2022/11/13 11:25:18;;;;;;;8.15;5.80;;;12.40;99.90;;;;;;5114064;28;20082;-79
2022/11/13 11:27:54;;;;;;;7.72;5.55;;;11.90;99.90;;;;;;5114772;28;20126;-80
2022/11/13 11:30:27;;;;;;;7.18;5.32;;;12.30;99.90;;;;;;5114940;28;20402;-80
2022/11/13 11:33:05;;;;;;;8.05;5.47;;;12.70;99.90;;;;;;5114298;28;20407;-79
2022/11/13 11:35:47;;;;;;;6.38;4.95;;;12.10;99.90;;;;;;5114440;28;20077;-79
2022/11/13 11:38:35;;;;;;;7.28;5.22;;;12.20;99.90;;;;;;5114355;28;20503;-79
2022/11/13 11:41:12;;;;;;;7.88;5.25;;;12.20;99.90;;;;;;5114385;28;20075;-77
2022/11/13 11:43:41;;;;;;;;;;;12.30;99.90;;;;;;5114696;28;20428;-78
2022/11/13 11:46:15;;;;;;;6.78;5.10;;;12.70;99.90;;;;;;5113987;28;19927;-78
2022/11/13 11:48:41;;;;;;;6.22;4.90;;;12.50;99.90;;;;;;5114090;28;20043;-79
2022/11/13 11:51:15;;;;;;;6.38;4.82;;;12.50;99.90;;;;;;5114471;28;20066;-79
2022/11/13 11:54:10;;;;;;;6.47;4.97;;;12.50;99.90;;;;;;5114393;28;20047;-79
2022/11/13 11:56:49;;;;;;;6.15;4.68;;;12.60;99.90;;;;;;5113946;28;20039;-79
2022/11/13 11:59:30;;;;;;;8.45;4.97;;;12.70;99.90;;;;;;5114027;28;20139;-78
2022/11/13 12:02:19;;;;;;;7.95;5.10;;;12.70;99.90;;;;;;5114493;28;20458;-79
2022/11/13 12:05:33;;;;;;;6.63;4.90;;;12.80;99.90;;;;;;5113836;28;20560;-79
2022/11/13 12:08:13;;;;;;;6.65;4.88;;;12.80;99.90;;;;;;5098717;28;20055;-79
2022/11/13 12:10:42;;;;;;;6.40;4.80;;;12.90;99.90;;;;;;5114262;28;20407;-79
2022/11/13 12:13:29;;;;;;;8.07;5.55;;;13.00;99.90;;;;;;5113523;28;20046;-78
2022/11/13 12:16:09;;;;;;;6.88;4.82;;;13.70;99.90;;;;;;5113818;28;20498;-79
2022/11/13 12:18:56;;;;;;;7.30;4.57;;;13.00;99.90;;;;;;5113824;28;20440;-79
2022/11/13 12:21:28;;;;;;;5.38;4.32;;;13.10;99.90;;;;;;5114025;28;20055;-79
2022/11/13 12:24:26;;;;;;;6.30;4.30;;;13.20;99.90;;;;;;5115710;28;20048;-79
2022/11/13 12:27:15;;;;;;;8.37;4.70;;;13.30;99.90;;;;;;5117610;28;20518;-79
2022/11/13 12:29:49;;;;;;;7.68;4.25;;;13.50;99.90;;;;;;5098857;28;20051;-79
2022/11/13 12:32:27;;;;;;;6.18;4.40;;;13.40;99.90;;;;;;5117616;28;20052;-78
2022/11/13 12:35:03;;;;;;;7.22;4.60;;;13.40;99.90;;;;;;5116753;28;20044;-78
2022/11/13 12:37:46;;;;;;;6.30;4.53;;;14.00;99.90;;;;;;5117863;28;20425;-79
2022/11/13 12:40:21;;;;;;;4.53;4.03;;;13.50;99.90;;;;;;5117493;28;20040;-79
2022/11/13 12:42:48;;;;;;;7.72;4.80;;;13.50;99.90;;;;;;5118149;28;20076;-79
2022/11/13 12:45:36;;;;;;;7.85;4.75;;;13.60;99.90;;;;;;5117734;28;20050;-79
2022/11/13 12:48:17;;;;;;;6.07;4.47;;;13.50;99.90;;;;;;5117530;28;20073;-79
2022/11/13 12:50:43;;;;;;;5.80;4.75;;;13.50;99.90;;;;;;5117250;28;20063;-79
2022/11/13 12:53:10;;;;;;;7.30;4.90;;;13.50;99.90;;;;;;5117298;28;20391;-78